createdAt,value
2019-03-16T00:00:20.056Z,995.18
2019-03-16T00:01:20.045Z,995.13
2019-03-16T00:02:20.341Z,995.13
2019-03-16T00:03:20.025Z,995.15
2019-03-16T00:04:20.015Z,995.13
2019-03-16T00:05:20.003Z,995.18
2019-03-16T00:06:20.000Z,995.10
2019-03-16T00:07:32.497Z,995.15
2019-03-16T00:08:21.038Z,995.15
2019-03-16T00:09:20.276Z,995.08
2019-03-16T00:10:19.950Z,995.14
2019-03-16T00:11:19.943Z,995.15
2019-03-16T00:12:19.932Z,995.21
2019-03-16T00:13:19.919Z,995.23
2019-03-16T00:14:20.191Z,995.16
2019-03-16T00:15:19.901Z,995.18
2019-03-16T00:16:20.968Z,995.24
2019-03-16T00:17:23.272Z,995.28
2019-03-16T00:18:20.576Z,995.23
2019-03-16T00:19:19.862Z,995.20
2019-03-16T00:20:19.878Z,995.27
2019-03-16T00:21:19.841Z,995.37
2019-03-16T00:22:19.827Z,995.35
2019-03-16T00:23:20.093Z,995.35
2019-03-16T00:24:19.806Z,995.40
2019-03-16T00:25:19.796Z,995.41
2019-03-16T00:26:19.823Z,995.38
2019-03-16T00:27:19.777Z,995.38
2019-03-16T00:28:19.766Z,995.42
2019-03-16T00:29:19.756Z,995.42
2019-03-16T00:30:20.029Z,995.44
2019-03-16T00:31:19.735Z,995.42
2019-03-16T00:32:19.784Z,995.47
2019-03-16T00:33:19.715Z,995.48
2019-03-16T00:34:19.707Z,995.50
2019-03-16T00:35:19.693Z,995.52
2019-03-16T00:36:19.686Z,995.51
2019-03-16T00:37:20.043Z,995.53
2019-03-16T00:38:19.743Z,995.51
2019-03-16T00:39:19.650Z,995.56
2019-03-16T00:40:19.642Z,995.58
2019-03-16T00:41:19.631Z,995.63
2019-03-16T00:42:19.620Z,995.73
2019-03-16T00:43:19.610Z,995.73
2019-03-16T00:44:20.451Z,995.78
2019-03-16T00:45:19.589Z,995.79
2019-03-16T00:46:19.579Z,995.75
2019-03-16T00:47:19.567Z,995.79
2019-03-16T00:48:19.636Z,995.75
2019-03-16T00:49:19.546Z,995.72
2019-03-16T00:50:19.691Z,995.75
2019-03-16T00:51:19.822Z,995.74
2019-03-16T00:52:19.517Z,995.77
2019-03-16T00:53:19.509Z,995.75
2019-03-16T00:54:19.496Z,995.88
2019-03-16T00:55:19.485Z,995.94
2019-03-16T00:56:19.512Z,995.90
2019-03-16T00:57:19.465Z,996.05
2019-03-16T00:58:19.744Z,996.01
2019-03-16T00:59:19.443Z,995.99
2019-03-16T01:00:19.432Z,995.96
2019-03-16T01:01:19.422Z,995.90
2019-03-16T01:02:27.127Z,995.83
2019-03-16T01:03:20.400Z,995.78
2019-03-16T01:04:19.397Z,995.75
2019-03-16T01:05:19.667Z,995.77
2019-03-16T01:06:19.371Z,995.68
2019-03-16T01:07:19.360Z,995.70
2019-03-16T01:08:19.393Z,995.67
2019-03-16T01:09:19.348Z,995.68
2019-03-16T01:10:19.329Z,995.72
2019-03-16T01:11:19.318Z,995.71
2019-03-16T01:12:19.588Z,995.71
2019-03-16T01:13:19.301Z,995.72
2019-03-16T01:14:19.411Z,995.78
2019-03-16T01:15:19.277Z,995.81
2019-03-16T01:16:19.267Z,995.81
2019-03-16T01:17:19.280Z,995.76
2019-03-16T01:18:19.252Z,995.78
2019-03-16T01:19:19.537Z,995.75
2019-03-16T01:20:19.430Z,995.74
2019-03-16T01:21:19.219Z,995.81
2019-03-16T01:22:19.210Z,995.89
2019-03-16T01:23:19.200Z,995.80
2019-03-16T01:24:19.207Z,995.86
2019-03-16T01:25:19.175Z,995.77
2019-03-16T01:26:19.505Z,995.81
2019-03-16T01:27:19.161Z,995.76
2019-03-16T01:28:19.149Z,995.78
2019-03-16T01:29:19.133Z,995.85
2019-03-16T01:30:19.123Z,995.83
2019-03-16T01:31:19.112Z,995.91
2019-03-16T01:32:19.160Z,995.84
2019-03-16T01:33:19.379Z,995.85
2019-03-16T01:34:19.085Z,995.82
2019-03-16T01:35:19.085Z,995.79
2019-03-16T01:36:19.061Z,995.81
2019-03-16T01:37:19.053Z,995.73
2019-03-16T01:38:19.076Z,995.89
2019-03-16T01:39:19.030Z,995.87
2019-03-16T01:40:19.300Z,995.89
2019-03-16T01:41:19.021Z,995.94
2019-03-16T01:42:18.999Z,995.92
2019-03-16T01:43:18.991Z,995.89
2019-03-16T01:44:20.089Z,995.98
2019-03-16T01:45:18.968Z,996.02
2019-03-16T01:46:18.980Z,996.08
2019-03-16T01:47:20.023Z,996.04
2019-03-16T01:48:18.940Z,996.02
2019-03-16T01:49:18.941Z,996.01
2019-03-16T01:50:21.697Z,995.96
2019-03-16T01:51:18.906Z,995.97
2019-03-16T01:52:18.904Z,995.96
2019-03-16T01:53:19.560Z,996.00
2019-03-16T01:54:19.154Z,995.99
2019-03-16T01:55:18.865Z,996.01
2019-03-16T01:56:19.598Z,996.09
2019-03-16T01:57:18.843Z,996.13
2019-03-16T01:58:18.835Z,996.12
2019-03-16T01:59:18.831Z,996.17
2019-03-16T02:00:18.816Z,996.11
2019-03-16T02:01:18.802Z,996.10
2019-03-16T02:02:19.271Z,996.13
2019-03-16T02:03:18.781Z,996.18
2019-03-16T02:04:18.771Z,996.09
2019-03-16T02:05:18.769Z,996.08
2019-03-16T02:06:18.774Z,996.03
2019-03-16T02:07:18.739Z,996.14
2019-03-16T02:08:18.771Z,996.08
2019-03-16T02:09:18.719Z,996.07
2019-03-16T02:10:18.709Z,996.07
2019-03-16T02:11:18.702Z,996.01
2019-03-16T02:12:18.688Z,996.01
2019-03-16T02:13:18.954Z,995.99
2019-03-16T02:14:18.760Z,995.93
2019-03-16T02:15:18.669Z,996.02
2019-03-16T02:16:18.707Z,995.96
2019-03-16T02:17:18.640Z,995.97
2019-03-16T02:18:18.662Z,995.94
2019-03-16T02:19:18.617Z,995.98
2019-03-16T02:20:18.672Z,995.93
2019-03-16T02:21:18.596Z,995.94
2019-03-16T02:22:18.585Z,995.92
2019-03-16T02:23:18.574Z,995.94
2019-03-16T02:24:18.566Z,995.98
2019-03-16T02:25:18.834Z,995.96
2019-03-16T02:26:18.586Z,995.95
2019-03-16T02:27:18.564Z,995.98
2019-03-16T02:28:18.523Z,995.97
2019-03-16T02:29:18.516Z,995.94
2019-03-16T02:30:18.503Z,995.90
2019-03-16T02:31:18.494Z,995.92
2019-03-16T02:32:18.835Z,995.89
2019-03-16T02:33:18.480Z,995.90
2019-03-16T02:34:18.461Z,995.92
2019-03-16T02:35:18.452Z,996.00
2019-03-16T02:36:18.445Z,996.06
2019-03-16T02:37:18.431Z,996.06
2019-03-16T02:38:18.495Z,996.04
2019-03-16T02:39:18.708Z,996.08
2019-03-16T02:40:18.397Z,996.01
2019-03-16T02:41:18.389Z,996.00
2019-03-16T02:42:18.386Z,996.09
2019-03-16T02:43:18.367Z,996.09
2019-03-16T02:44:18.405Z,996.08
2019-03-16T02:45:18.349Z,996.00
2019-03-16T02:46:18.629Z,996.04
2019-03-16T02:47:18.326Z,996.11
2019-03-16T02:48:18.323Z,996.14
2019-03-16T02:49:18.304Z,996.10
2019-03-16T02:50:18.341Z,996.20
2019-03-16T02:51:18.286Z,996.25
2019-03-16T02:52:18.317Z,996.30
2019-03-16T02:53:18.542Z,996.30
2019-03-16T02:54:18.251Z,996.30
2019-03-16T02:55:18.247Z,996.38
2019-03-16T02:56:19.584Z,996.37
2019-03-16T02:57:18.222Z,996.38
2019-03-16T02:58:18.224Z,996.32
2019-03-16T02:59:18.203Z,996.32
2019-03-16T03:01:40.147Z,996.36
2019-03-16T03:02:40.091Z,996.38
2019-03-16T03:03:40.027Z,996.46
2019-03-16T03:04:40.021Z,996.46
2019-03-16T03:05:40.009Z,996.43
2019-03-16T03:06:39.993Z,996.41
2019-03-16T03:07:40.355Z,996.43
2019-03-16T03:08:39.973Z,996.40
2019-03-16T03:09:40.023Z,996.40
2019-03-16T03:10:39.956Z,996.33
2019-03-16T03:11:39.979Z,996.39
2019-03-16T03:12:40.046Z,996.45
2019-03-16T03:13:40.017Z,996.45
2019-03-16T03:14:39.919Z,996.40
2019-03-16T03:15:39.905Z,996.41
2019-03-16T03:16:39.889Z,996.44
2019-03-16T03:17:39.882Z,996.38
2019-03-16T03:18:39.872Z,996.41
2019-03-16T03:19:40.239Z,996.50
2019-03-16T03:20:39.856Z,996.46
2019-03-16T03:21:39.856Z,996.45
2019-03-16T03:22:39.826Z,996.54
2019-03-16T03:23:39.817Z,996.54
2019-03-16T03:24:43.939Z,996.61
2019-03-16T03:25:40.135Z,996.59
2019-03-16T03:26:39.789Z,996.62
2019-03-16T03:27:39.780Z,996.59
2019-03-16T03:28:39.762Z,996.66
2019-03-16T03:29:39.751Z,996.65
2019-03-16T03:30:39.759Z,996.68
2019-03-16T03:31:40.076Z,996.67
2019-03-16T03:32:39.768Z,996.67
2019-03-16T03:33:58.744Z,996.62
2019-03-16T03:34:40.698Z,996.65
2019-03-16T03:35:39.687Z,996.64
2019-03-16T03:36:39.676Z,996.71
2019-03-16T03:37:40.000Z,996.68
2019-03-16T03:38:39.995Z,996.67
2019-03-16T03:39:39.644Z,996.70
2019-03-16T03:40:39.638Z,996.71
2019-03-16T03:41:39.625Z,996.72
2019-03-16T03:42:39.614Z,996.69
2019-03-16T03:43:39.648Z,996.64
2019-03-16T03:44:39.594Z,996.68
2019-03-16T03:45:39.891Z,996.66
2019-03-16T03:46:39.581Z,996.65
2019-03-16T03:47:39.579Z,996.62
2019-03-16T03:48:39.552Z,996.61
2019-03-16T03:49:39.584Z,996.61
2019-03-16T03:50:39.539Z,996.56
2019-03-16T03:51:39.519Z,996.59
2019-03-16T03:52:39.805Z,996.57
2019-03-16T03:53:41.315Z,996.55
2019-03-16T03:54:39.499Z,996.52
2019-03-16T03:55:39.675Z,996.45
2019-03-16T03:56:39.471Z,996.45
2019-03-16T03:57:39.459Z,996.52
2019-03-16T03:58:39.446Z,996.52
2019-03-16T03:59:39.719Z,996.48
2019-03-16T04:00:39.425Z,996.48
2019-03-16T04:01:39.472Z,996.52
2019-03-16T04:02:39.408Z,996.48
2019-03-16T04:03:39.393Z,996.52
2019-03-16T04:04:39.382Z,996.52
2019-03-16T04:05:39.375Z,996.52
2019-03-16T04:06:39.675Z,996.48
2019-03-16T04:07:39.388Z,996.48
2019-03-16T04:08:39.358Z,996.47
2019-03-16T04:09:39.333Z,996.45
2019-03-16T04:10:39.323Z,996.51
2019-03-16T04:11:39.313Z,996.52
2019-03-16T04:12:39.309Z,996.51
2019-03-16T04:13:41.729Z,996.51
2019-03-16T04:14:39.277Z,996.51
2019-03-16T04:15:39.286Z,996.50
2019-03-16T04:16:39.256Z,996.53
2019-03-16T04:17:39.289Z,996.48
2019-03-16T04:18:39.235Z,996.53
2019-03-16T04:19:39.268Z,996.56
2019-03-16T04:20:39.495Z,996.57
2019-03-16T04:21:39.218Z,996.60
2019-03-16T04:22:39.208Z,996.60
2019-03-16T04:23:39.206Z,996.59
2019-03-16T04:24:39.177Z,996.58
2019-03-16T04:25:39.266Z,996.60
2019-03-16T04:26:39.151Z,996.59
2019-03-16T04:27:39.434Z,996.59
2019-03-16T04:28:39.134Z,996.65
2019-03-16T04:29:39.147Z,996.58
2019-03-16T04:30:39.112Z,996.57
2019-03-16T04:31:39.165Z,996.60
2019-03-16T04:32:39.102Z,996.67
2019-03-16T04:33:39.192Z,996.65
2019-03-16T04:34:39.386Z,996.66
2019-03-16T04:35:39.059Z,996.69
2019-03-16T04:36:39.058Z,996.74
2019-03-16T04:37:39.084Z,996.70
2019-03-16T04:38:39.585Z,996.73
2019-03-16T04:39:39.024Z,996.79
2019-03-16T04:40:39.013Z,996.74
2019-03-16T04:41:39.301Z,996.73
2019-03-16T04:42:38.987Z,996.77
2019-03-16T04:43:39.010Z,996.76
2019-03-16T04:44:38.961Z,996.76
2019-03-16T04:45:38.951Z,996.75
2019-03-16T04:46:38.942Z,996.75
2019-03-16T04:47:38.930Z,996.71
2019-03-16T04:48:39.211Z,996.74
2019-03-16T04:49:38.984Z,996.76
2019-03-16T04:50:38.915Z,996.70
2019-03-16T04:51:39.723Z,996.77
2019-03-16T04:52:38.889Z,996.71
2019-03-16T04:53:38.876Z,996.80
2019-03-16T04:54:38.870Z,996.71
2019-03-16T04:55:39.289Z,996.75
2019-03-16T04:56:38.970Z,996.69
2019-03-16T04:57:38.992Z,996.67
2019-03-16T04:58:39.051Z,996.81
2019-03-16T04:59:38.805Z,996.76
2019-03-16T05:00:38.801Z,996.81
2019-03-16T05:01:39.112Z,996.83
2019-03-16T05:02:38.771Z,996.86
2019-03-16T05:03:38.763Z,996.88
2019-03-16T05:04:42.637Z,996.81
2019-03-16T05:05:38.746Z,996.87
2019-03-16T05:06:38.729Z,996.94
2019-03-16T05:07:38.802Z,996.91
2019-03-16T05:08:39.006Z,996.84
2019-03-16T05:09:38.701Z,996.81
2019-03-16T05:10:38.694Z,996.86
2019-03-16T05:11:38.687Z,996.91
2019-03-16T05:12:38.665Z,996.85
2019-03-16T05:13:38.690Z,996.91
2019-03-16T05:14:38.648Z,996.90
2019-03-16T05:15:38.918Z,996.94
2019-03-16T05:16:38.624Z,996.92
2019-03-16T05:17:38.617Z,996.93
2019-03-16T05:18:38.618Z,996.93
2019-03-16T05:19:38.626Z,996.95
2019-03-16T05:20:38.587Z,996.90
2019-03-16T05:21:38.575Z,996.94
2019-03-16T05:22:38.850Z,996.99
2019-03-16T05:23:38.552Z,997.01
2019-03-16T05:24:38.582Z,997.03
2019-03-16T05:25:38.594Z,997.01
2019-03-16T05:26:38.519Z,997.00
2019-03-16T05:27:38.519Z,997.04
2019-03-16T05:28:38.515Z,997.07
2019-03-16T05:29:38.800Z,997.12
2019-03-16T05:30:38.481Z,997.10
2019-03-16T05:31:38.501Z,997.09
2019-03-16T05:32:38.466Z,997.15
2019-03-16T05:33:38.449Z,997.16
2019-03-16T05:34:38.436Z,997.16
2019-03-16T05:35:38.427Z,997.22
2019-03-16T05:36:38.709Z,997.20
2019-03-16T05:37:38.439Z,997.17
2019-03-16T05:38:38.397Z,997.14
2019-03-16T05:39:38.382Z,997.11
2019-03-16T05:40:38.376Z,997.16
2019-03-16T05:41:38.360Z,997.24
2019-03-16T05:42:38.351Z,997.20
2019-03-16T05:43:38.762Z,997.20
2019-03-16T05:44:38.330Z,997.29
2019-03-16T05:45:38.322Z,997.29
2019-03-16T05:46:38.309Z,997.25
2019-03-16T05:47:38.301Z,997.27
2019-03-16T05:48:38.290Z,997.22
2019-03-16T05:49:38.314Z,997.21
2019-03-16T05:50:38.553Z,997.25
2019-03-16T05:51:38.256Z,997.17
2019-03-16T05:52:38.246Z,997.22
2019-03-16T05:53:38.242Z,997.23
2019-03-16T05:54:38.230Z,997.17
2019-03-16T05:55:38.252Z,997.18
2019-03-16T05:56:38.211Z,997.23
2019-03-16T05:57:38.479Z,997.25
2019-03-16T05:58:38.186Z,997.26
2019-03-16T05:59:38.177Z,997.30
2019-03-16T06:00:38.168Z,997.21
2019-03-16T06:01:38.196Z,997.26
2019-03-16T06:02:38.159Z,997.23
2019-03-16T06:03:38.131Z,997.23
2019-03-16T06:04:38.441Z,997.25
2019-03-16T06:05:38.187Z,997.24
2019-03-16T06:06:38.100Z,997.28
2019-03-16T06:07:38.137Z,997.30
2019-03-16T06:08:39.059Z,997.32
2019-03-16T06:09:38.069Z,997.37
2019-03-16T06:10:38.062Z,997.35
2019-03-16T06:11:38.343Z,997.34
2019-03-16T06:12:38.038Z,997.33
2019-03-16T06:13:38.063Z,997.24
2019-03-16T06:14:38.018Z,997.27
2019-03-16T06:15:38.024Z,997.30
2019-03-16T06:16:37.998Z,997.29
2019-03-16T06:17:37.986Z,997.27
2019-03-16T06:18:38.371Z,997.27
2019-03-16T06:19:38.013Z,997.28
2019-03-16T06:20:38.030Z,997.25
2019-03-16T06:21:37.947Z,997.29
2019-03-16T06:22:37.934Z,997.27
2019-03-16T06:23:37.927Z,997.30
2019-03-16T06:24:37.917Z,997.26
2019-03-16T06:25:37.941Z,997.27
2019-03-16T06:26:38.519Z,997.25
2019-03-16T06:27:37.883Z,997.25
2019-03-16T06:28:37.874Z,997.27
2019-03-16T06:29:37.862Z,997.19
2019-03-16T06:30:38.137Z,997.16
2019-03-16T06:31:37.877Z,997.22
2019-03-16T06:32:37.830Z,997.13
2019-03-16T06:33:37.924Z,997.12
2019-03-16T06:34:37.809Z,997.15
2019-03-16T06:35:37.806Z,997.16
2019-03-16T06:36:37.804Z,997.17
2019-03-16T06:37:38.080Z,997.13
2019-03-16T06:38:37.767Z,997.15
2019-03-16T06:39:37.759Z,997.12
2019-03-16T06:40:37.749Z,997.16
2019-03-16T06:41:37.750Z,997.13
2019-03-16T06:42:38.151Z,997.14
2019-03-16T06:43:37.755Z,997.20
2019-03-16T06:44:37.706Z,997.21
2019-03-16T06:45:37.708Z,997.22
2019-03-16T06:46:37.687Z,997.22
2019-03-16T06:47:37.674Z,997.22
2019-03-16T06:48:37.674Z,997.18
2019-03-16T06:49:38.233Z,997.19
2019-03-16T06:50:37.642Z,997.16
2019-03-16T06:51:37.634Z,997.23
2019-03-16T06:52:37.623Z,997.17
2019-03-16T06:53:37.710Z,997.14
2019-03-16T06:54:37.603Z,997.19
2019-03-16T06:55:38.177Z,997.16
2019-03-16T06:56:38.045Z,997.15
2019-03-16T06:57:37.575Z,997.13
2019-03-16T06:58:37.576Z,997.13
2019-03-16T06:59:37.551Z,997.12
2019-03-16T07:00:37.539Z,997.15
2019-03-16T07:01:37.562Z,997.09
2019-03-16T07:02:37.519Z,997.07
2019-03-16T07:03:38.513Z,997.09
2019-03-16T07:04:37.501Z,997.01
2019-03-16T07:05:38.903Z,996.98
2019-03-16T07:06:37.480Z,996.99
2019-03-16T07:07:37.502Z,996.91
2019-03-16T07:08:37.457Z,996.92
2019-03-16T07:09:37.444Z,996.90
2019-03-16T07:10:37.944Z,996.97
2019-03-16T07:11:37.437Z,996.91
2019-03-16T07:12:37.412Z,996.90
2019-03-16T07:13:37.446Z,996.86
2019-03-16T07:14:37.393Z,996.85
2019-03-16T07:15:37.381Z,996.85
2019-03-16T07:16:37.371Z,996.88
2019-03-16T07:17:38.713Z,996.88
2019-03-16T07:18:37.351Z,996.89
2019-03-16T07:19:38.184Z,996.82
2019-03-16T07:20:37.328Z,996.73
2019-03-16T07:21:37.319Z,996.70
2019-03-16T07:22:37.307Z,996.68
2019-03-16T07:23:37.333Z,996.71
2019-03-16T07:24:37.742Z,996.75
2019-03-16T07:25:37.399Z,996.78
2019-03-16T07:26:37.267Z,996.78
2019-03-16T07:27:37.255Z,996.76
2019-03-16T07:28:37.244Z,996.81
2019-03-16T07:29:37.236Z,996.84
2019-03-16T07:30:37.464Z,996.91
2019-03-16T07:31:37.504Z,996.87
2019-03-16T07:32:37.202Z,996.94
2019-03-16T07:33:37.193Z,996.98
2019-03-16T07:34:37.181Z,996.95
2019-03-16T07:35:37.175Z,997.01
2019-03-16T07:36:37.162Z,997.04
2019-03-16T07:37:37.672Z,997.02
2019-03-16T07:38:37.142Z,997.00
2019-03-16T07:39:37.129Z,996.97
2019-03-16T07:40:37.124Z,996.95
2019-03-16T07:41:37.111Z,996.87
2019-03-16T07:42:37.102Z,996.86
2019-03-16T07:43:37.212Z,996.81
2019-03-16T07:44:37.484Z,996.77
2019-03-16T07:45:37.066Z,996.73
2019-03-16T07:46:37.056Z,996.75
2019-03-16T07:47:37.049Z,996.79
2019-03-16T07:48:37.036Z,996.75
2019-03-16T07:49:39.220Z,996.75
2019-03-16T07:50:37.016Z,996.75
2019-03-16T07:51:37.017Z,996.76
2019-03-16T07:52:36.995Z,996.73
2019-03-16T07:53:36.982Z,996.75
2019-03-16T07:54:36.973Z,996.72
2019-03-16T07:55:37.182Z,996.70
2019-03-16T07:56:37.927Z,996.68
2019-03-16T07:57:40.338Z,996.70
2019-03-16T07:58:36.956Z,996.69
2019-03-16T07:59:37.422Z,996.68
2019-03-16T08:00:36.908Z,996.67
2019-03-16T08:01:37.022Z,996.62
2019-03-16T08:02:36.893Z,996.64
2019-03-16T08:03:37.229Z,996.63
2019-03-16T08:04:36.868Z,996.56
2019-03-16T08:05:36.856Z,996.52
2019-03-16T08:06:36.868Z,996.50
2019-03-16T08:07:36.982Z,996.51
2019-03-16T08:08:36.826Z,996.55
2019-03-16T08:09:36.816Z,996.51
2019-03-16T08:10:36.805Z,996.51
2019-03-16T08:11:36.796Z,996.54
2019-03-16T08:12:36.784Z,996.48
2019-03-16T08:13:36.801Z,996.52
2019-03-16T08:14:36.828Z,996.54
2019-03-16T08:15:36.798Z,996.57
2019-03-16T08:16:37.508Z,996.53
2019-03-16T08:17:37.106Z,996.52
2019-03-16T08:18:36.750Z,996.57
2019-03-16T08:19:36.743Z,996.54
2019-03-16T08:20:36.701Z,996.57
2019-03-16T08:21:37.051Z,996.55
2019-03-16T08:22:36.695Z,996.54
2019-03-16T08:23:36.677Z,996.52
2019-03-16T08:24:36.658Z,996.52
2019-03-16T08:25:36.710Z,996.50
2019-03-16T08:26:36.657Z,996.46
2019-03-16T08:27:36.628Z,996.39
2019-03-16T08:28:37.929Z,996.36
2019-03-16T08:29:36.611Z,996.34
2019-03-16T08:30:36.608Z,996.31
2019-03-16T08:31:36.616Z,996.29
2019-03-16T08:32:36.583Z,996.25
2019-03-16T08:33:36.577Z,996.21
2019-03-16T08:34:36.557Z,996.18
2019-03-16T08:35:36.957Z,996.16
2019-03-16T08:36:36.534Z,996.16
2019-03-16T08:37:36.551Z,996.22
2019-03-16T08:38:36.514Z,996.23
2019-03-16T08:39:36.503Z,996.21
2019-03-16T08:40:36.495Z,996.19
2019-03-16T08:41:36.484Z,996.16
2019-03-16T08:42:36.800Z,996.18
2019-03-16T08:43:36.499Z,996.19
2019-03-16T08:44:36.458Z,996.17
2019-03-16T08:45:36.441Z,996.07
2019-03-16T08:46:36.435Z,996.09
2019-03-16T08:47:36.420Z,996.16
2019-03-16T08:48:36.424Z,996.18
2019-03-16T08:49:37.543Z,996.12
2019-03-16T08:50:36.397Z,996.01
2019-03-16T08:51:36.379Z,996.02
2019-03-16T08:52:36.396Z,995.97
2019-03-16T08:53:36.359Z,996.03
2019-03-16T08:54:36.369Z,996.07
2019-03-16T08:55:36.365Z,996.04
2019-03-16T08:56:36.705Z,995.97
2019-03-16T08:57:36.322Z,995.93
2019-03-16T08:58:36.306Z,995.91
2019-03-16T08:59:36.303Z,995.86
2019-03-16T09:00:36.289Z,995.85
2019-03-16T09:01:38.005Z,995.84
2019-03-16T09:02:36.268Z,995.86
2019-03-16T09:03:43.562Z,995.84
2019-03-16T09:04:37.260Z,995.80
2019-03-16T09:05:36.239Z,995.81
2019-03-16T09:06:36.351Z,995.77
2019-03-16T09:07:36.332Z,995.72
2019-03-16T09:08:36.203Z,995.71
2019-03-16T09:09:36.197Z,995.65
2019-03-16T09:10:36.607Z,995.67
2019-03-16T09:11:36.172Z,995.59
2019-03-16T09:12:36.298Z,995.59
2019-03-16T09:13:36.768Z,995.65
2019-03-16T09:14:36.171Z,995.60
2019-03-16T09:15:36.145Z,995.62
2019-03-16T09:16:36.276Z,995.59
2019-03-16T09:17:36.129Z,995.56
2019-03-16T09:18:36.103Z,995.49
2019-03-16T09:19:36.314Z,995.52
2019-03-16T09:20:36.101Z,995.49
2019-03-16T09:21:36.221Z,995.45
2019-03-16T09:22:36.143Z,995.37
2019-03-16T09:23:36.769Z,995.37
2019-03-16T09:24:37.303Z,995.35
2019-03-16T09:25:36.302Z,995.44
2019-03-16T09:26:36.101Z,995.43
2019-03-16T09:27:36.060Z,995.35
2019-03-16T09:28:36.050Z,995.34
2019-03-16T09:29:35.989Z,995.34
2019-03-16T09:30:36.389Z,995.35
2019-03-16T09:31:36.888Z,995.36
2019-03-16T09:32:36.009Z,995.32
2019-03-16T09:33:35.961Z,995.35
2019-03-16T09:34:35.941Z,995.32
2019-03-16T09:35:36.824Z,995.30
2019-03-16T09:36:35.923Z,995.29
2019-03-16T09:37:36.435Z,995.24
2019-03-16T09:38:35.893Z,995.27
2019-03-16T09:39:35.882Z,995.23
2019-03-16T09:40:36.494Z,995.27
2019-03-16T09:41:35.886Z,995.29
2019-03-16T09:42:36.527Z,995.26
2019-03-16T09:43:35.960Z,995.24
2019-03-16T09:44:35.905Z,995.21
2019-03-16T09:45:35.821Z,995.22
2019-03-16T09:46:35.844Z,995.15
2019-03-16T09:47:35.832Z,995.13
2019-03-16T09:48:35.903Z,995.19
2019-03-16T09:49:36.258Z,995.14
2019-03-16T09:50:37.112Z,995.09
2019-03-16T09:51:35.924Z,995.18
2019-03-16T09:52:36.496Z,995.09
2019-03-16T09:53:36.155Z,995.06
2019-03-16T09:54:35.943Z,995.09
2019-03-16T09:55:40.033Z,995.02
2019-03-16T09:56:35.724Z,995.00
2019-03-16T09:57:35.714Z,995.02
2019-03-16T09:58:35.731Z,994.97
2019-03-16T09:59:35.678Z,994.93
2019-03-16T10:00:35.733Z,994.93
2019-03-16T10:01:36.103Z,994.92
2019-03-16T10:02:35.646Z,994.95
2019-03-16T10:03:35.646Z,994.88
2019-03-16T10:04:35.729Z,994.85
2019-03-16T10:05:35.661Z,994.88
2019-03-16T10:06:35.775Z,994.82
2019-03-16T10:07:36.557Z,994.79
2019-03-16T10:08:35.662Z,994.80
2019-03-16T10:09:35.640Z,994.71
2019-03-16T10:10:35.731Z,994.67
2019-03-16T10:11:36.231Z,994.63
2019-03-16T10:12:35.542Z,994.64
2019-03-16T10:13:36.713Z,994.63
2019-03-16T10:14:37.369Z,994.58
2019-03-16T10:15:35.514Z,994.60
2019-03-16T10:16:35.501Z,994.58
2019-03-16T10:17:35.491Z,994.53
2019-03-16T10:18:35.496Z,994.56
2019-03-16T10:19:35.601Z,994.52
2019-03-16T10:20:35.470Z,994.48
2019-03-16T10:21:35.807Z,994.46
2019-03-16T10:22:35.438Z,994.47
2019-03-16T10:23:36.101Z,994.42
2019-03-16T10:24:35.421Z,994.42
2019-03-16T10:25:35.457Z,994.37
2019-03-16T10:26:37.574Z,994.39
2019-03-16T10:27:35.387Z,994.35
2019-03-16T10:28:43.597Z,994.30
2019-03-16T10:29:36.382Z,994.31
2019-03-16T10:30:35.664Z,994.31
2019-03-16T10:31:36.509Z,994.33
2019-03-16T10:32:35.478Z,994.30
2019-03-16T10:33:35.353Z,994.28
2019-03-16T10:34:35.340Z,994.22
2019-03-16T10:35:36.212Z,994.24
2019-03-16T10:36:35.530Z,994.31
2019-03-16T10:37:36.527Z,994.21
2019-03-16T10:38:38.326Z,994.18
2019-03-16T10:39:35.742Z,994.18
2019-03-16T10:40:35.258Z,994.17
2019-03-16T10:41:36.156Z,994.14
2019-03-16T10:42:35.664Z,994.14
2019-03-16T10:43:35.871Z,994.13
2019-03-16T10:44:35.396Z,994.17
2019-03-16T10:45:35.636Z,994.22
2019-03-16T10:46:36.344Z,994.15
2019-03-16T10:47:35.207Z,994.14
2019-03-16T10:48:35.171Z,994.16
2019-03-16T10:49:35.708Z,994.23
2019-03-16T10:50:35.495Z,994.17
2019-03-16T10:51:35.137Z,994.10
2019-03-16T10:52:35.130Z,994.15
2019-03-16T10:53:35.232Z,994.12
2019-03-16T10:54:35.108Z,994.13
2019-03-16T10:55:35.132Z,994.10
2019-03-16T10:56:38.433Z,994.12
2019-03-16T10:57:35.096Z,994.05
2019-03-16T10:58:35.269Z,994.06
2019-03-16T10:59:36.196Z,994.05
2019-03-16T11:00:35.281Z,994.03
2019-03-16T11:01:35.431Z,993.97
2019-03-16T11:02:35.368Z,993.82
2019-03-16T11:03:36.043Z,993.97
2019-03-16T11:04:35.625Z,993.93
2019-03-16T11:05:35.762Z,993.98
2019-03-16T11:06:35.370Z,993.99
2019-03-16T11:07:36.538Z,994.01
2019-03-16T11:08:35.134Z,993.87
2019-03-16T11:09:35.863Z,993.98
2019-03-16T11:10:35.457Z,993.94
2019-03-16T11:11:35.031Z,993.90
2019-03-16T11:12:35.602Z,993.92
2019-03-16T11:13:35.968Z,993.92
2019-03-16T11:14:35.000Z,993.87
2019-03-16T11:15:35.078Z,993.79
2019-03-16T11:16:35.988Z,993.80
2019-03-16T11:17:34.995Z,993.84
2019-03-16T11:18:34.974Z,993.79
2019-03-16T11:19:35.012Z,993.85
2019-03-16T11:20:34.927Z,993.85
2019-03-16T11:21:34.820Z,993.86
2019-03-16T11:22:34.817Z,993.90
2019-03-16T11:23:34.816Z,993.78
2019-03-16T11:24:35.296Z,993.72
2019-03-16T11:25:35.519Z,993.85
2019-03-16T11:26:35.481Z,993.73
2019-03-16T11:27:34.867Z,993.81
2019-03-16T11:28:34.980Z,993.69
2019-03-16T11:29:35.199Z,993.86
2019-03-16T11:30:34.979Z,993.82
2019-03-16T11:31:35.905Z,993.83
2019-03-16T11:32:34.710Z,993.79
2019-03-16T11:33:34.704Z,993.74
2019-03-16T11:34:34.689Z,993.82
2019-03-16T11:35:34.814Z,993.81
2019-03-16T11:36:35.097Z,993.70
2019-03-16T11:37:34.730Z,993.64
2019-03-16T11:38:34.663Z,993.80
2019-03-16T11:39:34.686Z,993.77
2019-03-16T11:40:34.725Z,993.74
2019-03-16T11:41:34.765Z,993.80
2019-03-16T11:42:35.615Z,993.60
2019-03-16T11:43:35.427Z,993.81
2019-03-16T11:44:34.781Z,993.74
2019-03-16T11:45:34.814Z,993.66
2019-03-16T11:46:34.779Z,993.74
2019-03-16T11:47:34.723Z,993.73
2019-03-16T11:48:34.791Z,993.76
2019-03-16T11:49:35.549Z,993.72
2019-03-16T11:50:35.496Z,993.74
2019-03-16T11:51:34.514Z,993.87
2019-03-16T11:52:34.506Z,993.72
2019-03-16T11:53:34.561Z,993.72
2019-03-16T11:54:34.499Z,993.77
2019-03-16T11:55:34.546Z,993.75
2019-03-16T11:56:34.450Z,993.68
2019-03-16T11:57:34.442Z,993.71
2019-03-16T11:58:34.572Z,993.66
2019-03-16T11:59:34.485Z,993.73
2019-03-16T12:00:34.601Z,993.66
2019-03-16T12:01:36.833Z,993.39
2019-03-16T12:02:34.474Z,993.67
2019-03-16T12:03:34.419Z,993.69
2019-03-16T12:04:34.370Z,993.59
2019-03-16T12:05:34.428Z,993.64
2019-03-16T12:06:34.385Z,993.52
2019-03-16T12:07:35.389Z,993.57
2019-03-16T12:08:34.343Z,993.71
2019-03-16T12:09:35.486Z,993.58
2019-03-16T12:10:34.396Z,993.68
2019-03-16T12:11:34.296Z,993.70
2019-03-16T12:12:34.290Z,993.63
2019-03-16T12:13:34.394Z,993.59
2019-03-16T12:14:34.306Z,993.60
2019-03-16T12:15:34.260Z,993.63
2019-03-16T12:16:35.122Z,993.64
2019-03-16T12:17:34.273Z,993.64
2019-03-16T12:18:34.220Z,993.62
2019-03-16T12:19:34.377Z,993.60
2019-03-16T12:20:34.243Z,993.55
2019-03-16T12:21:34.636Z,993.59
2019-03-16T12:22:34.198Z,993.58
2019-03-16T12:23:34.329Z,993.57
2019-03-16T12:24:34.168Z,993.58
2019-03-16T12:25:34.420Z,993.53
2019-03-16T12:26:34.137Z,993.52
2019-03-16T12:27:34.197Z,993.60
2019-03-16T12:28:35.677Z,993.54
2019-03-16T12:29:34.501Z,993.57